Terminal Aerodrome Forecast
Issued by NWS Wilmington, OH

Current Version | Previous Version | Graphics & Text | Print | Product List | Glossary On
Versions: 1 2 3 4 5 6 7 8 9 10 11 12 13 14 15 16
000
FTUS41 KILN 220500
TAFCMH
TAF
KCMH 220528Z 2206/2306 25007KT P6SM SCT050 OVC080
     FM221100 27010KT P6SM BKN025 OVC050
      TEMPO 2211/2214 5SM -SHRA BR
     FM221400 30014KT P6SM SCT030 BKN050
     FM221600 31017G25KT P6SM FEW040
     FM230000 32011KT P6SM SKC=

USA.gov is the U.S. government's official web portal to all federal, state and local government web resources and services.